Time;durP1;ratioP1;P1;durP2;ratioP2;P2;SDS_P1;SDS_P2;PMS_P1;PMS_P2;Temp;Humidity;BMP_temperature;BMP_pressure;BME280_temperature;BME280_humidity;BME280_pressure;Samples;Min_cycle;Max_cycle;Signal;HPM_P1;HPM_P2
2021/08/17 00:01:47;;;;;;;28.45;12.45;;;13.20;99.90;;;;;;4974647;28;20055;-78
2021/08/17 00:04:14;;;;;;;27.02;11.88;;;13.20;99.90;;;;;;4975107;28;20043;-79
2021/08/17 00:06:43;;;;;;;22.88;12.25;;;13.30;99.90;;;;;;4978726;28;20132;-79
2021/08/17 00:09:09;;;;;;;28.05;13.45;;;13.30;99.90;;;;;;4983401;28;20527;-79
2021/08/17 00:11:40;;;;;;;32.97;13.77;;;13.30;99.90;;;;;;4983645;28;20133;-79
2021/08/17 00:14:07;;;;;;;30.40;14.70;;;13.20;99.90;;;;;;4983804;28;20201;-79
2021/08/17 00:16:34;;;;;;;32.88;13.82;;;13.20;99.90;;;;;;4983386;28;20058;-80
2021/08/17 00:19:01;;;;;;;34.38;15.05;;;13.20;99.90;;;;;;4980542;28;20102;-78
2021/08/17 00:21:28;;;;;;;40.85;15.85;;;13.20;99.90;;;;;;4981445;28;20109;-79
2021/08/17 00:23:58;;;;;;;37.88;15.70;;;13.20;99.90;;;;;;4978164;28;20142;-77
2021/08/17 00:26:25;;;;;;;38.08;16.95;;;13.20;99.90;;;;;;4979546;28;20524;-79
2021/08/17 00:28:52;;;;;;;37.45;17.55;;;13.10;99.90;;;;;;4986027;28;20082;-79
2021/08/17 00:31:19;;;;;;;37.13;17.58;;;13.10;99.90;;;;;;4987296;28;20113;-80
2021/08/17 00:33:46;;;;;;;42.83;18.92;;;13.10;99.90;;;;;;4985079;28;20054;-79
2021/08/17 00:36:13;;;;;;;42.05;17.58;;;13.10;99.90;;;;;;4982733;28;20051;-80
2021/08/17 00:38:41;;;;;;;44.50;18.52;;;13.10;99.90;;;;;;4983029;28;20105;-79
2021/08/17 00:41:11;;;;;;;50.10;19.77;;;13.10;99.90;;;;;;4981688;28;20054;-79
2021/08/17 00:43:39;;;;;;;50.22;19.55;;;13.10;99.90;;;;;;4978648;28;20043;-78
2021/08/17 00:46:07;;;;;;;48.38;20.48;;;13.10;99.90;;;;;;4979258;28;20546;-79
2021/08/17 00:48:34;;;;;;;51.40;22.30;;;13.10;99.90;;;;;;4979372;28;20400;-79
2021/08/17 00:51:01;;;;;;;46.85;20.58;;;13.10;99.90;;;;;;4978157;28;20078;-79
2021/08/17 00:53:29;;;;;;;47.33;23.63;;;13.00;99.90;;;;;;4979728;28;20562;-79
2021/08/17 00:55:57;;;;;;;55.17;21.75;;;13.00;99.90;;;;;;4980278;28;20150;-79
2021/08/17 00:58:28;;;;;;;50.80;22.67;;;13.00;99.90;;;;;;4980344;28;20551;-79
2021/08/17 01:00:56;;;;;;;53.35;22.55;;;13.00;99.90;;;;;;4979546;28;20182;-78
2021/08/17 01:03:23;;;;;;;58.53;24.00;;;13.00;99.90;;;;;;4978799;28;20046;-79
2021/08/17 01:05:50;;;;;;;57.60;24.40;;;13.00;99.90;;;;;;4977515;28;20089;-79
2021/08/17 01:08:17;;;;;;;56.22;24.92;;;13.00;99.90;;;;;;4976449;28;20181;-78
2021/08/17 01:10:44;;;;;;;62.97;25.20;;;13.00;99.90;;;;;;4975574;28;20102;-79
2021/08/17 01:13:11;;;;;;;62.08;26.25;;;13.00;99.90;;;;;;4975426;28;20438;-78
2021/08/17 01:15:40;;;;;;;60.28;26.58;;;13.00;99.90;;;;;;4976080;28;20093;-80
2021/08/17 01:18:07;;;;;;;59.35;25.80;;;13.00;99.90;;;;;;4976859;28;20484;-80
2021/08/17 01:20:37;;;;;;;63.63;26.85;;;13.00;99.90;;;;;;4977295;28;20077;-78
2021/08/17 01:23:24;;;;;;;60.45;27.58;;;13.00;99.90;;;;;;5044395;23;20153;-77
2021/08/17 01:26:01;;;;;;;59.75;26.83;;;13.00;99.90;;;;;;5035388;28;20053;-77
2021/08/17 01:31:42;;;;;;;59.83;26.33;;;13.00;99.90;;;;;;5033649;28;20052;-79
2021/08/17 01:36:56;;;;;;;73.78;27.23;;;13.10;99.90;;;;;;5034373;28;20064;-78
2021/08/17 01:39:28;;;;;;;68.47;27.55;;;13.10;99.90;;;;;;5036212;28;20053;-78
2021/08/17 01:41:59;;;;;;;66.45;27.35;;;13.10;99.90;;;;;;5035903;28;20077;-77
2021/08/17 01:44:27;;;;;;;67.97;28.02;;;13.10;99.90;;;;;;5035733;28;20046;-77
2021/08/17 01:50:30;;;;;;;;;;;;;;;;;;;;;
2021/08/17 01:53:30;;;;;;;77.20;29.58;;;13.10;99.90;;;;;;5017164;28;20100;-78
2021/08/17 01:56:36;;;;;;;63.20;29.55;;;13.10;99.90;;;;;;5043636;28;20214;-77
2021/08/17 01:59:30;;;;;;;69.97;29.40;;;13.10;99.90;;;;;;5044185;28;20057;-77
2021/08/17 02:01:59;;;;;;;71.18;28.08;;;13.10;99.90;;;;;;5012645;28;20053;-77
2021/08/17 02:04:46;;;;;;;66.60;29.23;;;13.10;99.90;;;;;;5040334;28;20077;-76
2021/08/17 02:07:18;;;;;;;63.20;28.40;;;13.10;99.90;;;;;;5042006;28;20080;-77
2021/08/17 02:10:10;;;;;;;66.13;28.10;;;13.10;99.90;;;;;;5042656;28;20058;-77
2021/08/17 02:12:37;;;;;;;65.93;28.17;;;13.10;99.90;;;;;;5046043;28;20293;-79
2021/08/17 02:15:06;;;;;;;66.35;28.23;;;13.10;99.90;;;;;;5044394;28;20049;-78
2021/08/17 02:17:32;;;;;;;65.93;27.60;;;13.10;99.90;;;;;;5045763;28;20577;-78
2021/08/17 02:19:59;;;;;;;64.57;28.25;;;13.10;99.90;;;;;;5046993;28;20049;-79
2021/08/17 02:22:26;;;;;;;63.25;27.67;;;13.10;99.90;;;;;;5045388;28;20133;-77
2021/08/17 02:24:55;;;;;;;64.68;26.88;;;13.10;99.90;;;;;;5040925;28;20144;-78
2021/08/17 02:27:21;;;;;;;72.22;28.40;;;13.10;99.90;;;;;;5041972;28;20136;-78
2021/08/17 02:29:48;;;;;;;68.57;28.05;;;13.00;99.90;;;;;;5043899;28;20072;-78
2021/08/17 02:32:16;;;;;;;65.68;28.40;;;13.00;99.90;;;;;;5044135;28;20073;-78
2021/08/17 02:34:43;;;;;;;63.17;28.15;;;13.10;99.90;;;;;;5039764;28;20124;-77
2021/08/17 02:37:10;;;;;;;62.53;28.52;;;13.10;99.90;;;;;;5040051;28;20117;-79
2021/08/17 02:39:37;;;;;;;61.45;28.17;;;13.10;99.90;;;;;;5043339;28;20073;-78
2021/08/17 02:42:04;;;;;;;68.05;28.63;;;13.00;99.90;;;;;;5040296;28;20129;-79
2021/08/17 02:44:37;;;;;;;68.15;29.52;;;13.00;99.90;;;;;;5040011;28;20050;-79
2021/08/17 02:47:04;;;;;;;68.63;27.90;;;13.10;99.90;;;;;;5040665;28;20105;-79
2021/08/17 02:49:33;;;;;;;67.18;27.83;;;13.10;99.90;;;;;;5036979;28;20092;-79
2021/08/17 02:52:03;;;;;;;62.97;27.38;;;13.00;99.90;;;;;;5037047;28;20060;-78
2021/08/17 02:54:31;;;;;;;64.75;27.48;;;13.10;99.90;;;;;;5037459;28;20524;-79
2021/08/17 02:56:58;;;;;;;65.00;26.98;;;13.00;99.90;;;;;;5037220;28;20136;-80
2021/08/17 02:59:24;;;;;;;65.80;29.20;;;13.00;99.90;;;;;;5035288;28;20109;-80
2021/08/17 03:01:51;;;;;;;67.05;27.45;;;13.00;99.90;;;;;;5035088;28;20133;-78
2021/08/17 03:04:18;;;;;;;66.60;27.90;;;13.00;99.90;;;;;;5034502;28;20128;-79
2021/08/17 03:06:46;;;;;;;64.28;28.80;;;13.00;99.90;;;;;;5034934;28;20088;-79
2021/08/17 03:09:13;;;;;;;70.63;27.75;;;13.00;99.90;;;;;;5035005;28;20284;-79
2021/08/17 03:11:40;;;;;;;69.60;28.33;;;13.00;99.90;;;;;;5033702;28;20049;-79
2021/08/17 03:14:07;;;;;;;65.03;28.38;;;13.00;99.90;;;;;;5034179;28;20128;-78
2021/08/17 03:16:35;;;;;;;62.85;27.40;;;13.00;99.90;;;;;;5033970;28;20140;-79
2021/08/17 03:19:02;;;;;;;57.20;28.15;;;12.90;99.90;;;;;;5034318;28;20033;-79
2021/08/17 03:21:29;;;;;;;67.63;27.20;;;12.90;99.90;;;;;;5033786;28;20116;-78
2021/08/17 03:23:58;;;;;;;68.20;30.30;;;12.90;99.90;;;;;;5033751;28;20049;-79
2021/08/17 03:26:25;;;;;;;63.40;27.00;;;12.80;99.90;;;;;;5033704;28;20073;-79
2021/08/17 03:28:52;;;;;;;68.80;28.30;;;12.90;99.90;;;;;;5034592;28;20136;-79
2021/08/17 03:31:19;;;;;;;70.00;29.50;;;12.80;99.90;;;;;;5034949;28;20053;-79
2021/08/17 03:33:45;;;;;;;67.65;27.40;;;12.80;99.90;;;;;;5034414;28;20137;-79
2021/08/17 03:36:13;;;;;;;62.80;26.65;;;12.80;99.90;;;;;;5034825;28;20076;-79
2021/08/17 03:38:40;;;;;;;68.40;27.45;;;12.90;99.90;;;;;;5034232;28;20133;-79
2021/08/17 03:46:35;;;;;;;73.45;28.02;;;12.80;99.90;;;;;;983187;26;20554;-77
2021/08/17 03:52:38;;;;;;;69.57;28.08;;;12.70;99.90;;;;;;4972641;28;20070;-78
2021/08/17 03:55:29;;;;;;;66.53;26.05;;;12.80;99.90;;;;;;4971217;28;20085;-79
2021/08/17 03:57:56;;;;;;;57.33;25.95;;;12.80;99.90;;;;;;4977284;28;20051;-80
2021/08/17 04:00:26;;;;;;;68.03;27.80;;;12.80;99.90;;;;;;4977641;28;20061;-81
2021/08/17 04:10:47;;;;;;;58.53;25.27;;;12.80;99.90;;;;;;5017734;28;20057;-80
2021/08/17 04:16:49;;;;;;;58.15;24.58;;;12.80;99.90;;;;;;4988591;28;20700;-81
2021/08/17 04:19:16;;;;;;;62.08;26.38;;;12.70;99.90;;;;;;5019218;28;20108;-80
2021/08/17 04:21:45;;;;;;;56.58;24.58;;;12.80;99.90;;;;;;5016397;28;20053;-79
2021/08/17 04:24:29;;;;;;;57.47;25.42;;;12.90;99.90;;;;;;5017018;28;20056;-80
2021/08/17 04:27:09;;;;;;;56.03;24.45;;;13.00;99.90;;;;;;5017817;28;20172;-80
2021/08/17 04:29:51;;;;;;;56.00;24.88;;;12.90;99.90;;;;;;5018115;28;20414;-80
2021/08/17 04:32:29;;;;;;;61.03;24.70;;;12.90;99.90;;;;;;5018693;28;20053;-80
2021/08/17 04:35:26;;;;;;;55.95;23.63;;;12.90;99.90;;;;;;5017089;28;20111;-80
2021/08/17 04:41:25;;;;;;;60.47;23.88;;;13.00;99.90;;;;;;5011292;28;20050;-79
2021/08/17 04:44:00;;;;;;;51.20;22.95;;;13.10;99.90;;;;;;5018386;28;20490;-80
2021/08/17 04:46:38;;;;;;;54.63;23.08;;;13.10;99.90;;;;;;5018348;28;20061;-80
2021/08/17 04:49:31;;;;;;;58.78;22.98;;;13.20;99.90;;;;;;5017179;28;20149;-79
2021/08/17 04:52:48;;;;;;;45.83;22.42;;;13.30;99.90;;;;;;5016603;28;20465;-79
2021/08/17 04:59:10;;;;;;;54.13;23.63;;;13.30;99.90;;;;;;4979854;28;20057;-79
2021/08/17 05:02:18;;;;;;;;;;;;;;;;;;;;;
2021/08/17 05:05:22;;;;;;;55.15;23.63;;;13.30;99.90;;;;;;4970103;28;20161;-80
2021/08/17 05:08:39;;;;;;;51.03;25.25;;;13.40;99.90;;;;;;4951745;28;20050;-81
2021/08/17 05:11:43;;;;;;;;;;;;;;;;;;;;;
2021/08/17 05:16:40;;;;;;;50.80;23.65;;;13.50;99.90;;;;;;5051094;23;20429;-85
2021/08/17 05:19:07;;;;;;;54.50;24.05;;;13.50;99.90;;;;;;5011030;28;20061;-83
2021/08/17 05:21:34;;;;;;;50.92;23.17;;;13.60;99.90;;;;;;5011663;28;20054;-83
2021/08/17 05:24:01;;;;;;;52.42;22.63;;;13.70;99.90;;;;;;5010543;28;20050;-83
2021/08/17 05:26:28;;;;;;;50.28;23.38;;;13.80;99.90;;;;;;5010521;28;20074;-81
2021/08/17 05:28:55;;;;;;;48.08;21.48;;;13.80;99.90;;;;;;5004463;28;20118;-83
2021/08/17 05:31:22;;;;;;;50.03;23.90;;;13.90;99.90;;;;;;5007429;28;20153;-84
2021/08/17 05:33:50;;;;;;;50.80;23.73;;;14.00;99.90;;;;;;5006555;28;20077;-81
2021/08/17 05:36:17;;;;;;;51.83;22.05;;;14.00;99.90;;;;;;5004890;28;20090;-78
2021/08/17 05:38:45;;;;;;;52.53;23.58;;;14.10;99.90;;;;;;5000404;28;20129;-82
2021/08/17 05:41:11;;;;;;;46.33;22.15;;;14.20;99.90;;;;;;4999525;28;20137;-81
2021/08/17 05:43:38;;;;;;;53.47;23.17;;;14.20;99.90;;;;;;4998060;28;20443;-79
2021/08/17 05:46:05;;;;;;;53.03;21.83;;;14.10;99.90;;;;;;4998461;28;20519;-81
2021/08/17 05:48:33;;;;;;;55.17;24.83;;;14.10;99.90;;;;;;4998421;28;20090;-78
2021/08/17 05:51:04;;;;;;;53.65;23.52;;;14.10;99.90;;;;;;5010873;28;20085;-81
2021/08/17 05:53:30;;;;;;;52.38;24.90;;;14.20;99.90;;;;;;5019491;28;20065;-81
2021/08/17 05:55:57;;;;;;;52.45;24.48;;;14.20;99.90;;;;;;5018635;28;20092;-79
2021/08/17 05:58:24;;;;;;;49.72;23.67;;;14.30;99.90;;;;;;5020243;28;20141;-81
2021/08/17 06:00:51;;;;;;;51.80;23.55;;;14.30;99.90;;;;;;5019683;28;20451;-81
2021/08/17 06:03:18;;;;;;;51.75;23.65;;;14.40;99.90;;;;;;5020186;28;20085;-78
2021/08/17 06:05:45;;;;;;;52.15;23.55;;;14.50;99.90;;;;;;5020023;28;20042;-80
2021/08/17 06:08:13;;;;;;;52.10;23.40;;;14.50;99.90;;;;;;5021020;28;20133;-82
2021/08/17 06:10:40;;;;;;;51.42;24.08;;;14.60;99.90;;;;;;5019568;28;20101;-78
2021/08/17 06:13:07;;;;;;;51.72;23.95;;;14.80;99.90;;;;;;5018892;28;20458;-80
2021/08/17 06:15:34;;;;;;;52.83;23.88;;;15.00;99.90;;;;;;5012402;28;20870;-79
2021/08/17 06:18:04;;;;;;;44.95;22.20;;;15.10;99.90;;;;;;5016008;28;20064;-80
2021/08/17 06:20:32;;;;;;;52.72;23.20;;;15.30;99.90;;;;;;5018555;28;20077;-80
2021/08/17 06:22:59;;;;;;;45.58;23.23;;;15.50;99.90;;;;;;5019740;28;20367;-80
2021/08/17 06:25:29;;;;;;;46.67;23.70;;;15.60;99.90;;;;;;5016310;28;20128;-80
2021/08/17 06:27:55;;;;;;;48.67;23.98;;;15.70;99.90;;;;;;5020873;28;20145;-80
2021/08/17 06:30:22;;;;;;;48.38;22.95;;;15.80;99.90;;;;;;5020701;28;20140;-81
2021/08/17 06:32:49;;;;;;;47.72;23.08;;;15.90;99.90;;;;;;5020882;28;20096;-80
2021/08/17 06:35:16;;;;;;;51.90;24.83;;;16.00;99.90;;;;;;5021253;28;20129;-81
2021/08/17 06:37:43;;;;;;;49.53;23.13;;;16.10;99.90;;;;;;5022092;28;20085;-81
2021/08/17 06:40:11;;;;;;;50.33;22.77;;;16.30;99.90;;;;;;5021997;28;20046;-79
2021/08/17 06:42:40;;;;;;;40.55;22.55;;;16.60;99.90;;;;;;5021128;28;20068;-79
2021/08/17 06:45:08;;;;;;;41.25;22.50;;;17.10;99.90;;;;;;5021876;28;20049;-81
2021/08/17 06:47:35;;;;;;;42.13;22.25;;;17.50;99.90;;;;;;5022411;28;20115;-82
2021/08/17 06:50:02;;;;;;;42.35;23.27;;;17.70;99.90;;;;;;5021828;28;20137;-81
2021/08/17 06:52:28;;;;;;;42.40;21.83;;;17.90;99.90;;;;;;5021132;28;20054;-81
2021/08/17 06:54:55;;;;;;;41.30;21.83;;;18.20;99.90;;;;;;5020850;28;20077;-81
2021/08/17 06:57:22;;;;;;;42.67;22.15;;;18.50;99.90;;;;;;5020707;28;20486;-79
2021/08/17 06:59:50;;;;;;;35.00;20.58;;;18.60;99.90;;;;;;5021935;28;20050;-81
2021/08/17 07:02:17;;;;;;;45.72;23.23;;;18.30;99.90;;;;;;5023883;28;20052;-80
2021/08/17 07:04:44;;;;;;;42.80;23.13;;;18.20;99.90;;;;;;5021128;28;20050;-80
2021/08/17 07:07:11;;;;;;;44.42;22.58;;;18.00;99.90;;;;;;5022806;28;20141;-80
2021/08/17 07:09:38;;;;;;;40.80;22.73;;;17.80;99.90;;;;;;5021277;28;20129;-79
2021/08/17 07:12:05;;;;;;;46.47;22.67;;;17.60;99.90;;;;;;5021930;28;20050;-81
2021/08/17 07:14:32;;;;;;;47.45;21.90;;;17.60;99.90;;;;;;5021165;28;20097;-79
2021/08/17 07:17:01;;;;;;;40.65;22.05;;;17.50;99.90;;;;;;5021197;28;20061;-81
2021/08/17 07:19:28;;;;;;;45.00;23.60;;;17.30;99.90;;;;;;5021172;28;20057;-83
2021/08/17 07:21:56;;;;;;;42.65;21.75;;;17.20;99.90;;;;;;5020139;28;20069;-82
2021/08/17 07:24:22;;;;;;;42.83;22.52;;;17.20;99.90;;;;;;5019383;28;20064;-79
2021/08/17 07:26:49;;;;;;;45.90;22.90;;;17.20;99.90;;;;;;5018428;28;20077;-80
2021/08/17 07:29:16;;;;;;;41.70;21.83;;;17.20;99.90;;;;;;5020465;28;20050;-80
2021/08/17 07:31:43;;;;;;;40.65;22.23;;;17.30;99.90;;;;;;5023726;28;20088;-83
2021/08/17 07:34:12;;;;;;;37.40;20.13;;;17.50;99.90;;;;;;5024648;28;20073;-81
2021/08/17 07:36:38;;;;;;;37.90;19.48;;;17.90;99.90;;;;;;5026149;28;20073;-81
2021/08/17 07:39:06;;;;;;;40.53;21.52;;;18.00;99.90;;;;;;5024898;28;20513;-81
2021/08/17 07:41:34;;;;;;;38.30;20.48;;;17.90;99.90;;;;;;5023424;28;20088;-82
2021/08/17 07:44:01;;;;;;;39.47;21.80;;;17.60;99.90;;;;;;5023425;28;20084;-81
2021/08/17 07:46:28;;;;;;;41.85;22.08;;;17.20;99.90;;;;;;5023624;28;20054;-81
2021/08/17 07:48:56;;;;;;;38.20;21.35;;;17.00;99.90;;;;;;5025628;28;20057;-80
2021/08/17 07:51:25;;;;;;;38.85;21.38;;;16.90;99.90;;;;;;5024025;28;20061;-80
2021/08/17 07:53:52;;;;;;;42.30;22.25;;;16.80;99.90;;;;;;5028184;28;20088;-82
2021/08/17 07:56:19;;;;;;;41.53;22.00;;;16.80;99.90;;;;;;5028789;28;20057;-82
2021/08/17 07:58:47;;;;;;;42.03;21.75;;;17.00;99.90;;;;;;5028781;28;20065;-80
2021/08/17 08:01:14;;;;;;;38.35;19.40;;;17.20;99.90;;;;;;5022960;28;20084;-80
2021/08/17 08:03:41;;;;;;;34.55;19.92;;;17.50;99.90;;;;;;5021780;28;20054;-79
2021/08/17 08:06:08;;;;;;;38.83;20.88;;;18.10;99.90;;;;;;5020605;28;20077;-80
2021/08/17 08:08:37;;;;;;;36.45;20.30;;;18.60;99.90;;;;;;5021247;28;20418;-80
2021/08/17 08:11:04;;;;;;;36.90;19.35;;;18.90;99.90;;;;;;5021508;28;20396;-79
2021/08/17 08:13:31;;;;;;;33.75;19.73;;;19.20;99.90;;;;;;5021999;28;20113;-79
2021/08/17 08:15:58;;;;;;;31.35;19.92;;;19.70;99.90;;;;;;5020897;28;20113;-81
2021/08/17 08:18:25;;;;;;;30.40;18.33;;;20.00;99.90;;;;;;5021764;28;20056;-79
2021/08/17 08:20:52;;;;;;;31.45;19.17;;;20.10;99.90;;;;;;5026411;28;20072;-80
2021/08/17 08:23:18;;;;;;;32.42;18.60;;;20.30;99.90;;;;;;5035183;28;20077;-78
2021/08/17 08:25:47;;;;;;;31.17;19.05;;;20.40;99.90;;;;;;5034783;28;20072;-79
2021/08/17 08:28:14;;;;;;;34.90;19.30;;;20.30;99.90;;;;;;5034202;28;20081;-79
2021/08/17 08:30:41;;;;;;;31.05;18.30;;;20.40;99.90;;;;;;5031908;28;20117;-78
2021/08/17 08:33:08;;;;;;;35.47;19.27;;;20.40;99.90;;;;;;5023379;28;20081;-79
2021/08/17 08:35:35;;;;;;;33.25;18.75;;;20.20;99.90;;;;;;5021020;28;20077;-78
2021/08/17 08:38:02;;;;;;;35.35;18.42;;;20.00;99.90;;;;;;5019660;28;20129;-79
2021/08/17 08:40:30;;;;;;;32.13;18.02;;;19.70;99.90;;;;;;5019528;28;20080;-79
2021/08/17 08:42:58;;;;;;;30.05;16.23;;;19.50;99.90;;;;;;5020284;28;20109;-79
2021/08/17 08:45:28;;;;;;;37.20;19.10;;;19.40;99.90;;;;;;5021995;28;20050;-80
2021/08/17 08:47:55;;;;;;;30.92;17.00;;;19.10;99.90;;;;;;5023673;28;20085;-80
2021/08/17 08:50:22;;;;;;;29.27;16.83;;;19.10;99.90;;;;;;5023327;28;20129;-79
2021/08/17 08:52:50;;;;;;;29.42;17.48;;;19.40;99.90;;;;;;5023757;28;20088;-80
2021/08/17 08:55:17;;;;;;;26.33;16.77;;;19.70;99.90;;;;;;5023615;28;20130;-79
2021/08/17 08:57:43;;;;;;;32.22;17.17;;;19.80;99.90;;;;;;5023399;28;20137;-78
2021/08/17 09:00:13;;;;;;;30.08;17.40;;;20.00;99.90;;;;;;5023076;28;20096;-79
2021/08/17 09:02:40;;;;;;;29.40;17.65;;;19.90;99.90;;;;;;5022400;28;20058;-79
2021/08/17 09:05:07;;;;;;;29.50;17.35;;;19.70;99.90;;;;;;5021318;28;20056;-79
2021/08/17 09:07:36;;;;;;;30.38;17.33;;;19.80;99.90;;;;;;5022033;28;20077;-79
2021/08/17 09:10:08;;;;;;;32.67;17.98;;;20.00;99.90;;;;;;5022944;28;20141;-79
2021/08/17 09:12:37;;;;;;;27.95;17.17;;;20.00;99.90;;;;;;5022613;28;20133;-80
2021/08/17 09:15:10;;;;;;;33.58;18.08;;;20.30;99.90;;;;;;5021008;28;20141;-79
2021/08/17 09:17:40;;;;;;;33.83;18.65;;;20.10;99.90;;;;;;5020985;28;20132;-79
2021/08/17 09:20:08;;;;;;;32.72;17.42;;;20.00;99.90;;;;;;5023214;28;20049;-79
2021/08/17 09:22:35;;;;;;;29.30;17.33;;;19.70;99.90;;;;;;5022730;28;20466;-79
2021/08/17 09:25:05;;;;;;;34.20;18.48;;;19.50;99.90;;;;;;5021691;28;20128;-79
2021/08/17 09:27:35;;;;;;;32.78;18.30;;;19.30;99.90;;;;;;5022956;28;20088;-79
2021/08/17 09:30:06;;;;;;;30.45;18.75;;;19.10;99.90;;;;;;5020938;28;20137;-80
2021/08/17 09:32:33;;;;;;;31.13;18.17;;;18.90;99.90;;;;;;5021057;28;20054;-78
2021/08/17 09:35:03;;;;;;;26.85;16.58;;;18.90;99.90;;;;;;5022808;28;20088;-79
2021/08/17 09:37:31;;;;;;;34.53;17.92;;;18.70;99.90;;;;;;5021298;28;20065;-78
2021/08/17 09:40:00;;;;;;;29.88;17.35;;;18.80;99.90;;;;;;5020724;28;20495;-78
2021/08/17 09:42:28;;;;;;;29.75;18.02;;;18.80;99.90;;;;;;5019682;28;20525;-79
2021/08/17 09:45:13;;;;;;;31.92;18.08;;;18.80;99.90;;;;;;5020959;28;20081;-79
2021/08/17 09:47:42;;;;;;;25.23;15.93;;;18.80;99.90;;;;;;5019702;28;20073;-78
2021/08/17 09:50:26;;;;;;;31.83;18.45;;;18.80;99.90;;;;;;5021980;28;20136;-78
2021/08/17 09:53:13;;;;;;;28.27;15.88;;;18.80;99.90;;;;;;5021554;28;20064;-77
2021/08/17 09:55:46;;;;;;;29.20;16.60;;;18.80;99.90;;;;;;5021398;28;20092;-78
2021/08/17 09:58:21;;;;;;;32.22;17.65;;;18.70;99.90;;;;;;5021957;28;20049;-79
2021/08/17 10:00:49;;;;;;;26.77;15.85;;;18.70;99.90;;;;;;5021593;28;20092;-78
2021/08/17 10:03:17;;;;;;;27.48;16.80;;;18.70;99.90;;;;;;5022071;28;20114;-79
2021/08/17 10:05:45;;;;;;;28.70;16.33;;;18.90;99.90;;;;;;5022141;28;20046;-80
2021/08/17 10:08:14;;;;;;;23.50;15.40;;;18.90;99.90;;;;;;5022667;28;20391;-79
2021/08/17 10:10:41;;;;;;;26.52;16.67;;;18.80;99.90;;;;;;5021330;28;20077;-79
2021/08/17 10:13:12;;;;;;;25.67;15.27;;;18.80;99.90;;;;;;5021891;28;20060;-79
2021/08/17 10:15:38;;;;;;;27.13;15.40;;;18.80;99.90;;;;;;5021358;28;20045;-79
2021/08/17 10:18:08;;;;;;;28.48;16.23;;;18.70;99.90;;;;;;5022549;28;20132;-79
2021/08/17 10:20:37;;;;;;;25.85;16.30;;;18.60;99.90;;;;;;5022453;28;20085;-79
2021/08/17 10:23:06;;;;;;;28.92;16.13;;;18.50;99.90;;;;;;5022198;28;20089;-79
2021/08/17 10:25:44;;;;;;;26.13;15.65;;;18.50;99.90;;;;;;5021812;28;20141;-79
2021/08/17 10:28:32;;;;;;;29.38;16.45;;;18.50;99.90;;;;;;5023152;28;20065;-80
2021/08/17 10:31:22;;;;;;;26.10;17.20;;;18.50;99.90;;;;;;5021150;28;20111;-78
2021/08/17 10:33:51;;;;;;;25.77;16.10;;;18.50;99.90;;;;;;5021333;28;20050;-79
2021/08/17 10:36:31;;;;;;;29.40;17.92;;;18.60;99.90;;;;;;5021693;28;20076;-78
2021/08/17 10:39:01;;;;;;;27.75;16.50;;;18.60;99.90;;;;;;5021680;28;20128;-80
2021/08/17 10:41:37;;;;;;;24.92;15.32;;;18.70;99.90;;;;;;5023343;28;20086;-79
2021/08/17 10:44:12;;;;;;;26.58;17.00;;;18.60;99.90;;;;;;5021771;28;20085;-79
2021/08/17 10:46:42;;;;;;;28.50;16.42;;;18.70;99.90;;;;;;5021607;28;20046;-79
2021/08/17 10:49:28;;;;;;;25.45;16.42;;;18.60;99.90;;;;;;5021631;28;20498;-79
2021/08/17 10:51:56;;;;;;;27.90;17.02;;;18.60;99.90;;;;;;5019700;28;20049;-79
2021/08/17 10:54:25;;;;;;;29.17;17.17;;;18.70;99.90;;;;;;5020578;28;20494;-79
2021/08/17 10:56:55;;;;;;;23.90;15.98;;;18.80;99.90;;;;;;5021664;28;20045;-79
2021/08/17 10:59:41;;;;;;;23.38;16.60;;;18.80;99.90;;;;;;5022286;28;20085;-81
2021/08/17 11:02:10;;;;;;;25.65;15.90;;;18.70;99.90;;;;;;5020968;28;20050;-78
2021/08/17 11:04:42;;;;;;;25.73;15.32;;;18.70;99.90;;;;;;5020218;28;20065;-79
2021/08/17 11:07:31;;;;;;;24.55;15.23;;;18.60;99.90;;;;;;5020505;28;20042;-79
2021/08/17 11:10:02;;;;;;;26.30;16.10;;;18.50;99.90;;;;;;5021477;28;20049;-79
2021/08/17 11:12:35;;;;;;;23.42;15.73;;;18.50;99.90;;;;;;5019440;28;20561;-79
2021/08/17 11:15:04;;;;;;;24.73;16.50;;;18.30;99.90;;;;;;5037802;23;20136;-78
2021/08/17 11:17:31;;;;;;;28.25;16.48;;;18.30;99.90;;;;;;5013864;28;20046;-77
2021/08/17 11:19:58;;;;;;;25.65;16.48;;;18.30;99.90;;;;;;4994847;28;20046;-78
2021/08/17 11:22:28;;;;;;;22.45;15.55;;;18.20;99.90;;;;;;4994430;28;20137;-77
2021/08/17 11:24:57;;;;;;;25.88;15.38;;;18.20;99.90;;;;;;4994941;28;20133;-78
2021/08/17 11:27:27;;;;;;;27.65;15.70;;;18.20;99.90;;;;;;4994615;28;20418;-79
2021/08/17 11:29:56;;;;;;;28.52;15.82;;;18.10;99.90;;;;;;4994533;28;20153;-79
2021/08/17 11:32:31;;;;;;;24.00;14.23;;;18.00;99.90;;;;;;4995093;28;20426;-79
2021/08/17 11:35:01;;;;;;;23.98;14.02;;;17.90;99.90;;;;;;4994087;28;20129;-79
2021/08/17 11:37:29;;;;;;;24.85;14.25;;;17.80;99.90;;;;;;4994456;28;20141;-79
2021/08/17 11:39:59;;;;;;;20.55;13.80;;;17.70;99.90;;;;;;4995307;28;20092;-78
2021/08/17 11:42:29;;;;;;;23.40;13.07;;;17.70;99.90;;;;;;4995163;28;20507;-77
2021/08/17 11:44:58;;;;;;;24.85;12.63;;;17.70;99.90;;;;;;4995389;28;20493;-79
2021/08/17 11:47:25;;;;;;;21.40;12.25;;;17.70;99.90;;;;;;4994732;28;20080;-78
2021/08/17 11:49:53;;;;;;;20.35;13.02;;;17.60;99.90;;;;;;4994598;28;20499;-79
2021/08/17 11:52:21;;;;;;;22.88;12.77;;;17.50;99.90;;;;;;4993887;28;20444;-77
2021/08/17 11:54:57;;;;;;;19.50;12.93;;;17.60;99.90;;;;;;4993722;28;20440;-78
2021/08/17 11:57:31;;;;;;;24.67;13.43;;;17.60;99.90;;;;;;4993650;28;20086;-78
2021/08/17 12:00:10;;;;;;;22.50;13.90;;;17.70;99.90;;;;;;4993912;28;20138;-78
2021/08/17 12:02:38;;;;;;;20.38;12.88;;;17.80;99.90;;;;;;4993926;28;20078;-78
2021/08/17 12:05:08;;;;;;;20.88;13.27;;;17.80;99.90;;;;;;4993584;28;20057;-78
2021/08/17 12:07:35;;;;;;;20.52;13.05;;;17.80;99.90;;;;;;4993989;28;20054;-78
2021/08/17 12:10:09;;;;;;;22.13;12.60;;;17.80;99.90;;;;;;4994096;28;20081;-78
2021/08/17 12:13:11;;;;;;;22.05;12.52;;;17.80;99.90;;;;;;4993414;28;20137;-78
2021/08/17 12:15:40;;;;;;;19.52;12.23;;;17.70;99.90;;;;;;4993558;28;20122;-78
2021/08/17 12:18:10;;;;;;;19.17;12.25;;;17.70;99.90;;;;;;4994778;28;20050;-79
2021/08/17 12:20:39;;;;;;;32.38;13.65;;;17.70;99.90;;;;;;4998022;28;20129;-80
2021/08/17 12:23:20;;;;;;;24.65;13.23;;;17.70;99.90;;;;;;4997768;28;20077;-79
2021/08/17 12:25:48;;;;;;;17.35;11.95;;;17.60;99.90;;;;;;4997343;28;20092;-78
2021/08/17 12:28:28;;;;;;;22.70;12.23;;;17.60;99.90;;;;;;4997575;28;20086;-78
2021/08/17 12:31:13;;;;;;;19.65;12.90;;;17.70;99.90;;;;;;4997961;28;20450;-77
2021/08/17 12:33:50;;;;;;;19.70;12.23;;;17.70;99.90;;;;;;4998000;28;20104;-78
2021/08/17 12:36:17;;;;;;;23.55;12.02;;;17.70;99.90;;;;;;4996989;28;20046;-79
2021/08/17 12:38:44;;;;;;;20.02;12.10;;;17.80;99.90;;;;;;4997878;28;20050;-79
2021/08/17 12:41:28;;;;;;;23.55;11.48;;;17.90;99.90;;;;;;4997690;28;20133;-78
2021/08/17 12:43:57;;;;;;;17.20;11.57;;;18.00;99.90;;;;;;4997705;28;20112;-78
2021/08/17 12:46:24;;;;;;;17.55;11.38;;;18.10;99.90;;;;;;4997792;28;20137;-78
2021/08/17 12:48:50;;;;;;;15.77;10.25;;;18.00;99.90;;;;;;4997608;28;20057;-79
2021/08/17 12:51:23;;;;;;;20.33;11.57;;;18.00;99.90;;;;;;4997601;28;20474;-78
2021/08/17 12:53:50;;;;;;;17.38;10.57;;;17.90;99.90;;;;;;4997654;28;20133;-78
2021/08/17 12:56:17;;;;;;;14.98;10.18;;;17.90;99.90;;;;;;4996767;28;20463;-79
2021/08/17 12:58:45;;;;;;;16.50;10.43;;;17.90;99.90;;;;;;4997719;28;20081;-78
2021/08/17 13:01:14;;;;;;;17.40;10.40;;;17.90;99.90;;;;;;4997763;28;20488;-78
2021/08/17 13:03:41;;;;;;;14.07;9.52;;;17.90;99.90;;;;;;4998058;28;20153;-78
2021/08/17 13:06:07;;;;;;;14.07;9.25;;;17.90;99.90;;;;;;4997007;28;20057;-78
2021/08/17 13:08:34;;;;;;;20.10;10.27;;;17.90;99.90;;;;;;4997191;28;20140;-79
2021/08/17 13:11:01;;;;;;;16.50;9.63;;;17.90;99.90;;;;;;4997297;28;20070;-79
2021/08/17 13:13:28;;;;;;;16.40;9.73;;;17.90;99.90;;;;;;4997177;28;20129;-78
2021/08/17 13:15:55;;;;;;;27.92;10.52;;;17.90;99.90;;;;;;4996493;28;20054;-78
2021/08/17 13:18:23;;;;;;;16.92;9.95;;;17.80;99.90;;;;;;4996481;28;20458;-79
2021/08/17 13:20:50;;;;;;;14.50;9.25;;;17.80;99.90;;;;;;4996745;28;20147;-79
2021/08/17 13:23:17;;;;;;;16.67;9.80;;;17.70;99.90;;;;;;4996445;28;20426;-79
2021/08/17 13:25:44;;;;;;;19.17;10.48;;;17.60;99.90;;;;;;4996820;28;20527;-78
2021/08/17 13:28:11;;;;;;;18.70;10.93;;;17.50;99.90;;;;;;4997126;28;20051;-80